createdAt,value
2023-08-14T04:15:21.928Z,21.11
2023-08-14T04:16:21.873Z,21.03
2023-08-14T04:17:21.835Z,21.06
2023-08-14T04:18:21.954Z,21.09
2023-08-14T04:19:21.825Z,21.06
2023-08-14T04:20:21.817Z,21.06
2023-08-14T04:21:21.817Z,21.11
2023-08-14T04:22:21.808Z,21.15
2023-08-14T04:23:21.818Z,21.12
2023-08-14T04:24:21.839Z,21.13
2023-08-14T04:25:21.782Z,21.13
2023-08-14T04:26:21.794Z,21.23
2023-08-14T04:27:21.772Z,21.23
2023-08-14T04:28:21.766Z,21.21
2023-08-14T04:29:21.809Z,21.31
2023-08-14T04:30:21.777Z,21.27
2023-08-14T04:31:21.849Z,21.22
2023-08-14T04:32:21.766Z,21.30
2023-08-14T04:33:21.817Z,21.31
2023-08-14T04:34:21.753Z,21.31
2023-08-14T04:35:21.749Z,21.30
2023-08-14T04:36:21.745Z,21.36
2023-08-14T04:37:21.747Z,21.36
2023-08-14T04:38:21.740Z,21.36
2023-08-14T04:39:21.740Z,21.36
2023-08-14T04:40:21.758Z,21.43
2023-08-14T04:41:21.734Z,21.43
2023-08-14T04:42:21.744Z,21.53
2023-08-14T04:43:21.730Z,21.52
2023-08-14T04:44:21.717Z,21.51
2023-08-14T04:45:21.733Z,21.46
2023-08-14T04:46:21.833Z,21.45
2023-08-14T04:47:21.724Z,21.53
2023-08-14T04:48:21.739Z,21.53
2023-08-14T04:49:21.715Z,21.48
2023-08-14T04:50:21.722Z,21.59
2023-08-14T04:51:21.710Z,21.62
2023-08-14T04:52:21.714Z,21.59
2023-08-14T04:53:21.687Z,21.55
2023-08-14T04:54:21.674Z,21.62
2023-08-14T04:55:21.672Z,21.61
2023-08-14T04:56:21.680Z,21.67
2023-08-14T04:57:21.672Z,21.61
2023-08-14T04:58:22.361Z,21.64
2023-08-14T04:59:21.675Z,21.70
2023-08-14T05:00:21.703Z,21.64
2023-08-14T05:01:21.735Z,21.71
2023-08-14T05:02:21.709Z,21.71
2023-08-14T05:03:21.682Z,21.77
2023-08-14T05:04:21.682Z,21.78
2023-08-14T05:05:21.644Z,21.80
2023-08-14T05:06:21.659Z,21.78
2023-08-14T05:07:21.636Z,21.83
2023-08-14T05:08:21.635Z,21.82
2023-08-14T05:09:27.145Z,21.83
2023-08-14T05:10:21.635Z,21.80
2023-08-14T05:11:21.645Z,21.80
2023-08-14T05:12:21.637Z,21.78
2023-08-14T05:13:21.619Z,21.86
2023-08-14T05:14:21.661Z,21.80
2023-08-14T05:15:21.607Z,21.90
2023-08-14T05:16:21.642Z,21.89
2023-08-14T05:17:21.646Z,21.96
2023-08-14T05:18:21.600Z,21.94
2023-08-14T05:19:21.680Z,21.96
2023-08-14T05:20:21.603Z,21.94
2023-08-14T05:21:21.601Z,21.94
2023-08-14T05:22:21.626Z,21.97
2023-08-14T05:23:21.613Z,21.94
2023-08-14T05:24:21.604Z,21.94
2023-08-14T05:25:21.580Z,22.02
2023-08-14T05:26:21.589Z,22.04
2023-08-14T05:27:21.591Z,22.00
2023-08-14T05:28:21.615Z,22.02
2023-08-14T05:29:21.603Z,22.14
2023-08-14T05:30:21.581Z,22.02
2023-08-14T05:31:21.694Z,22.12
2023-08-14T05:32:21.576Z,22.14
2023-08-14T05:33:21.555Z,22.11
2023-08-14T05:34:21.559Z,22.12
2023-08-14T05:35:21.622Z,22.07
2023-08-14T05:36:21.551Z,22.09
2023-08-14T05:37:21.556Z,22.05
2023-08-14T05:38:21.557Z,22.11
2023-08-14T05:39:21.552Z,22.08
2023-08-14T05:40:21.560Z,22.20
2023-08-14T05:41:21.527Z,22.11
2023-08-14T05:42:21.576Z,22.18
2023-08-14T05:43:21.531Z,22.14
2023-08-14T05:44:21.525Z,22.23
2023-08-14T05:45:21.609Z,22.16
2023-08-14T05:46:21.532Z,22.07
2023-08-14T05:47:21.590Z,22.23
2023-08-14T05:48:21.519Z,22.22
2023-08-14T05:49:21.547Z,22.23
2023-08-14T05:50:21.505Z,22.29
2023-08-14T05:51:21.540Z,22.23
2023-08-14T05:52:21.605Z,22.29
2023-08-14T05:53:21.540Z,22.30
2023-08-14T05:54:21.499Z,22.30
2023-08-14T05:55:21.507Z,22.34
2023-08-14T05:56:21.525Z,22.26
2023-08-14T05:57:21.536Z,22.23
2023-08-14T05:58:21.517Z,22.30
2023-08-14T05:59:21.495Z,22.38
2023-08-14T06:00:21.487Z,22.33
2023-08-14T06:01:21.552Z,22.39
2023-08-14T06:02:21.837Z,22.45
2023-08-14T06:03:29.510Z,22.38
2023-08-14T06:04:21.549Z,22.39
2023-08-14T06:05:21.491Z,22.46
2023-08-14T06:06:21.469Z,22.45
2023-08-14T06:07:21.625Z,22.57
2023-08-14T06:08:21.475Z,22.59
2023-08-14T06:09:21.452Z,22.63
2023-08-14T06:10:21.476Z,22.63
2023-08-14T06:11:21.472Z,22.60
2023-08-14T06:12:23.104Z,22.76
2023-08-14T06:13:21.493Z,22.75
2023-08-14T06:14:21.439Z,22.78
2023-08-14T06:15:21.462Z,22.81
2023-08-14T06:16:21.502Z,22.86
2023-08-14T06:17:21.472Z,22.86
2023-08-14T06:18:21.499Z,22.99
2023-08-14T06:19:21.433Z,22.97
2023-08-14T06:20:21.553Z,23.06
2023-08-14T06:21:21.428Z,23.04
2023-08-14T06:22:21.427Z,23.09
2023-08-14T06:23:21.475Z,23.16
2023-08-14T06:24:21.417Z,23.03
2023-08-14T06:25:21.417Z,23.16
2023-08-14T06:26:21.404Z,23.22
2023-08-14T06:27:21.405Z,23.21
2023-08-14T06:28:21.440Z,23.25
2023-08-14T06:29:21.433Z,23.37
2023-08-14T06:30:21.454Z,23.40
2023-08-14T06:31:21.447Z,23.38
2023-08-14T06:32:21.658Z,23.44
2023-08-14T06:33:21.405Z,23.42
2023-08-14T06:34:21.413Z,23.50
2023-08-14T06:35:21.422Z,23.56
2023-08-14T06:36:21.425Z,23.59
2023-08-14T06:37:21.396Z,23.62
2023-08-14T06:38:21.391Z,23.62
2023-08-14T06:39:21.411Z,23.72
2023-08-14T06:40:21.481Z,23.70
2023-08-14T06:41:21.529Z,23.75
2023-08-14T06:42:21.404Z,23.82
2023-08-14T06:43:21.382Z,23.87
2023-08-14T06:44:21.376Z,23.87
2023-08-14T06:45:21.402Z,23.96
2023-08-14T06:46:21.439Z,23.93
2023-08-14T06:47:21.414Z,23.94
2023-08-14T06:48:21.381Z,23.96
2023-08-14T06:49:21.373Z,24.07
2023-08-14T06:50:21.373Z,24.09
2023-08-14T06:51:21.399Z,24.09
2023-08-14T06:52:21.705Z,24.14
2023-08-14T06:56:18.611Z,24.26
2023-08-14T06:57:18.543Z,24.27
2023-08-14T06:58:18.552Z,24.24
2023-08-14T06:59:18.583Z,24.26
2023-08-14T07:00:18.563Z,24.30
2023-08-14T07:01:18.635Z,24.44
2023-08-14T07:02:18.743Z,24.39
2023-08-14T07:03:18.715Z,24.39
2023-08-14T07:04:18.541Z,24.45
2023-08-14T07:05:18.576Z,24.55
2023-08-14T07:06:18.585Z,24.52
2023-08-14T07:07:18.547Z,24.45
2023-08-14T07:08:18.549Z,24.55
2023-08-14T07:09:18.532Z,24.54
2023-08-14T07:10:20.129Z,24.67
2023-08-14T07:11:18.532Z,24.61
2023-08-14T07:12:19.499Z,24.67
2023-08-14T07:13:18.539Z,24.66
2023-08-14T07:14:19.340Z,24.70
2023-08-14T07:15:18.573Z,24.66
2023-08-14T07:16:18.656Z,24.69
2023-08-14T07:17:18.545Z,24.80
2023-08-14T07:18:18.532Z,24.77
2023-08-14T07:19:18.566Z,24.78
2023-08-14T07:20:18.545Z,24.75
2023-08-14T07:21:18.560Z,24.89
2023-08-14T07:22:18.838Z,24.89
2023-08-14T07:23:18.525Z,24.90
2023-08-14T07:24:18.549Z,24.94
2023-08-14T07:25:18.573Z,24.92
2023-08-14T07:26:18.559Z,25.01
2023-08-14T07:27:18.523Z,25.01
2023-08-14T07:28:18.564Z,25.00
2023-08-14T07:29:19.756Z,25.01
2023-08-14T07:30:18.933Z,25.07
2023-08-14T07:31:18.584Z,25.07
2023-08-14T07:32:18.836Z,25.01
2023-08-14T07:33:18.531Z,25.09
2023-08-14T07:34:18.514Z,25.15
2023-08-14T07:35:18.532Z,25.17
2023-08-14T07:36:18.546Z,25.19
2023-08-14T07:37:18.508Z,25.17
2023-08-14T07:38:18.524Z,25.23
2023-08-14T07:39:18.529Z,25.27
2023-08-14T07:40:18.572Z,25.32
2023-08-14T07:41:18.518Z,25.32
2023-08-14T07:42:18.735Z,25.34
2023-08-14T07:43:18.551Z,25.32
2023-08-14T07:44:18.572Z,25.30
2023-08-14T07:45:18.545Z,25.34
2023-08-14T07:46:18.568Z,25.37
2023-08-14T07:47:18.536Z,25.34
2023-08-14T07:48:18.560Z,25.37
2023-08-14T07:49:18.499Z,25.49
2023-08-14T07:50:18.597Z,25.48
2023-08-14T07:51:18.498Z,25.49
2023-08-14T07:52:18.783Z,25.51
2023-08-14T07:53:18.519Z,25.60
2023-08-14T07:54:18.537Z,25.56
2023-08-14T07:55:18.498Z,25.56
2023-08-14T07:56:18.519Z,25.63
2023-08-14T07:57:18.523Z,25.67
2023-08-14T07:58:18.555Z,25.69
2023-08-14T07:59:18.547Z,25.70
2023-08-14T08:00:18.542Z,25.71
2023-08-14T08:01:18.545Z,25.75
2023-08-14T08:02:18.687Z,25.82
2023-08-14T08:03:18.560Z,25.81
2023-08-14T08:05:20.614Z,25.91
2023-08-14T08:06:18.504Z,25.93
2023-08-14T08:07:18.826Z,25.97
2023-08-14T08:08:18.517Z,25.99
2023-08-14T08:09:18.514Z,26.09
2023-08-14T08:10:18.491Z,26.09
2023-08-14T08:11:18.518Z,26.11
2023-08-14T08:12:18.709Z,26.11
2023-08-14T08:13:18.578Z,26.11
2023-08-14T08:14:18.526Z,26.24
2023-08-14T08:15:18.498Z,26.27
2023-08-14T08:16:18.667Z,26.24
2023-08-14T08:17:18.516Z,26.32
2023-08-14T08:18:18.521Z,26.27
2023-08-14T08:19:18.518Z,26.34
2023-08-14T08:20:18.499Z,26.23
2023-08-14T08:21:18.525Z,26.30
2023-08-14T08:22:18.804Z,26.30
2023-08-14T08:23:18.502Z,26.34
2023-08-14T08:24:18.493Z,26.26
2023-08-14T08:25:18.508Z,26.26
2023-08-14T08:26:18.516Z,26.30
2023-08-14T08:27:18.505Z,26.24
2023-08-14T08:28:18.521Z,26.30
2023-08-14T08:29:18.553Z,26.34
2023-08-14T08:30:18.525Z,26.31
2023-08-14T08:31:18.517Z,26.23
2023-08-14T08:32:18.830Z,26.30
2023-08-14T08:33:26.965Z,26.31
2023-08-14T08:34:18.511Z,26.32
2023-08-14T08:35:18.512Z,26.27
2023-08-14T08:36:18.522Z,26.32
2023-08-14T08:37:18.507Z,26.27
2023-08-14T08:38:18.689Z,26.26
2023-08-14T08:39:19.375Z,26.34
2023-08-14T08:40:18.528Z,26.26
2023-08-14T08:41:18.517Z,26.26
2023-08-14T08:42:18.672Z,26.24
2023-08-14T08:43:18.504Z,26.24
2023-08-14T08:44:18.531Z,26.23
2023-08-14T08:45:18.522Z,26.26
2023-08-14T08:46:18.652Z,26.32
2023-08-14T08:47:18.511Z,26.37
2023-08-14T08:48:18.557Z,26.27
2023-08-14T08:49:18.515Z,26.24
2023-08-14T08:50:18.538Z,26.24
2023-08-14T08:51:18.519Z,26.27
2023-08-14T08:52:18.768Z,26.22
2023-08-14T08:53:18.517Z,26.24
2023-08-14T08:54:18.520Z,26.32
2023-08-14T08:55:18.506Z,26.27
2023-08-14T08:56:18.531Z,26.34
2023-08-14T08:57:18.512Z,26.34
2023-08-14T08:58:18.523Z,26.42
2023-08-14T08:59:18.579Z,26.27
2023-08-14T09:00:18.743Z,26.38
2023-08-14T09:01:18.603Z,26.47
2023-08-14T09:02:18.972Z,26.59
2023-08-14T09:03:18.675Z,26.60
2023-08-14T09:04:18.600Z,26.64
2023-08-14T09:05:18.530Z,26.59
2023-08-14T09:06:18.568Z,26.72
2023-08-14T09:07:18.523Z,26.60
2023-08-14T09:08:18.532Z,26.75
2023-08-14T09:09:18.513Z,26.82
2023-08-14T09:10:18.525Z,26.78
2023-08-14T09:11:18.529Z,26.79
2023-08-14T09:12:18.733Z,26.79
2023-08-14T09:13:24.664Z,26.93
2023-08-14T09:14:18.520Z,26.86
2023-08-14T09:15:18.545Z,26.87
2023-08-14T09:16:18.595Z,26.84
2023-08-14T09:17:18.546Z,26.86
2023-08-14T09:18:18.569Z,26.82
2023-08-14T09:19:18.510Z,26.93
2023-08-14T09:20:24.067Z,26.86
2023-08-14T09:21:18.530Z,26.96
2023-08-14T09:22:18.527Z,26.89
2023-08-14T09:23:18.524Z,26.87
2023-08-14T09:24:18.541Z,26.84
2023-08-14T09:25:18.524Z,26.90
2023-08-14T09:26:18.531Z,26.96
2023-08-14T09:27:18.658Z,26.96
2023-08-14T09:28:18.536Z,26.94
2023-08-14T09:29:18.893Z,27.00
2023-08-14T09:30:18.558Z,27.05
2023-08-14T09:31:18.547Z,27.00
2023-08-14T09:32:18.730Z,27.01
2023-08-14T09:33:18.570Z,27.12
2023-08-14T09:34:18.586Z,27.19
2023-08-14T09:35:18.576Z,27.26
2023-08-14T09:36:18.573Z,27.24
2023-08-14T09:37:18.528Z,27.18
2023-08-14T09:38:18.536Z,27.26
2023-08-14T09:39:18.958Z,27.36
2023-08-14T09:40:18.544Z,27.34
2023-08-14T09:41:18.561Z,27.37
2023-08-14T09:42:18.715Z,27.49
2023-08-14T09:43:18.531Z,27.51
2023-08-14T09:44:18.575Z,27.49
2023-08-14T09:45:18.561Z,27.55
2023-08-14T09:46:18.551Z,27.59
2023-08-14T09:47:18.609Z,27.62
2023-08-14T09:48:18.590Z,27.59
2023-08-14T09:49:18.563Z,27.62
2023-08-14T09:50:18.565Z,27.74
2023-08-14T09:51:18.552Z,27.72
2023-08-14T09:52:18.765Z,27.79
2023-08-14T09:53:18.591Z,27.76
2023-08-14T09:54:18.557Z,27.80
2023-08-14T09:55:18.589Z,27.83
2023-08-14T09:56:18.581Z,27.90
2023-08-14T09:57:18.590Z,27.86
2023-08-14T09:58:18.623Z,27.93
2023-08-14T09:59:18.567Z,27.98
2023-08-14T10:00:18.655Z,27.96
2023-08-14T10:01:18.625Z,28.05
2023-08-14T10:03:51.125Z,28.02
2023-08-14T10:04:51.116Z,28.06
2023-08-14T10:05:51.150Z,28.14
2023-08-14T10:06:51.122Z,28.26
2023-08-14T10:07:51.152Z,28.35
2023-08-14T10:08:51.144Z,28.24
2023-08-14T10:09:51.136Z,28.33
2023-08-14T10:11:05.815Z,28.33
2023-08-14T10:11:51.134Z,28.43
2023-08-14T10:12:51.156Z,28.46
2023-08-14T10:13:51.225Z,28.53
2023-08-14T10:14:51.166Z,28.53
2023-08-14T10:15:51.162Z,28.63
2023-08-14T10:16:51.156Z,28.64
2023-08-14T10:17:51.222Z,28.70
2023-08-14T10:29:46.548Z,29.20
2023-08-14T10:30:46.499Z,29.17
2023-08-14T10:31:46.467Z,29.33
2023-08-14T10:32:46.498Z,29.30
2023-08-14T10:33:46.476Z,29.38
2023-08-14T10:34:46.461Z,29.39
2023-08-14T10:35:46.485Z,29.42
2023-08-14T10:36:46.464Z,29.50
2023-08-14T10:37:56.233Z,29.54
2023-08-14T10:38:46.537Z,29.58
2023-08-14T10:39:46.496Z,29.63
2023-08-14T10:40:48.281Z,29.66
2023-08-14T10:41:46.539Z,29.77
2023-08-14T10:42:46.477Z,29.76
2023-08-14T10:43:46.519Z,29.82
2023-08-14T10:44:46.479Z,29.94
2023-08-14T10:45:46.494Z,30.02
2023-08-14T10:46:46.481Z,30.09
2023-08-14T10:47:46.560Z,30.06
2023-08-14T10:48:46.534Z,30.10
2023-08-14T10:49:46.488Z,30.22
2023-08-14T10:50:46.512Z,30.24
2023-08-14T10:51:46.506Z,30.32
2023-08-14T10:52:46.499Z,30.31
2023-08-14T10:53:46.528Z,30.48
2023-08-14T10:54:46.512Z,30.52
2023-08-14T10:55:46.579Z,30.49
2023-08-14T10:56:46.583Z,30.60
2023-08-14T10:57:46.543Z,30.70
2023-08-14T10:58:46.569Z,30.66
2023-08-14T10:59:46.531Z,30.79
2023-08-14T11:00:46.561Z,30.86
2023-08-14T11:01:46.645Z,30.96
2023-08-14T11:02:46.605Z,30.89
2023-08-14T11:03:46.613Z,30.91
2023-08-14T11:04:46.537Z,31.06
2023-08-14T11:05:46.594Z,31.13
2023-08-14T11:06:46.556Z,31.16
2023-08-14T11:07:46.576Z,31.19
2023-08-14T11:08:46.589Z,31.30
2023-08-14T11:09:46.607Z,31.26
2023-08-14T11:10:46.581Z,31.41
2023-08-14T11:11:46.579Z,31.52
2023-08-14T11:12:46.585Z,31.47
2023-08-14T11:13:46.641Z,31.58
2023-08-14T11:14:46.608Z,31.67
2023-08-14T11:15:46.757Z,31.74
2023-08-14T11:16:46.672Z,31.75
2023-08-14T11:17:46.655Z,31.90
2023-08-14T11:18:46.601Z,31.94
2023-08-14T11:19:46.650Z,31.98
2023-08-14T11:20:46.667Z,32.01
2023-08-14T11:21:46.638Z,32.00
2023-08-14T11:22:46.666Z,32.08
2023-08-14T11:23:46.676Z,32.17
2023-08-14T11:24:46.675Z,32.25
2023-08-14T11:25:46.653Z,32.30
2023-08-14T11:26:46.637Z,32.37
2023-08-14T11:27:46.647Z,32.52
2023-08-14T11:29:53.782Z,32.57
2023-08-14T11:30:46.665Z,32.62
2023-08-14T11:31:49.520Z,32.79
2023-08-14T11:32:46.697Z,32.71
2023-08-14T11:33:46.716Z,32.80
2023-08-14T11:34:46.698Z,32.86
2023-08-14T11:35:47.127Z,32.89
2023-08-14T11:36:46.720Z,32.96
2023-08-14T11:37:46.697Z,32.91
2023-08-14T11:38:48.318Z,33.11
2023-08-14T11:39:46.732Z,33.20
2023-08-14T11:40:46.709Z,33.23
2023-08-14T11:41:46.758Z,33.31
2023-08-14T11:42:46.739Z,33.37
2023-08-14T11:43:47.017Z,33.29
2023-08-14T11:44:46.785Z,33.50
2023-08-14T11:45:46.752Z,33.62
2023-08-14T11:46:46.773Z,33.56
2023-08-14T11:47:46.896Z,33.63
2023-08-14T11:48:46.765Z,33.71
2023-08-14T11:49:46.828Z,33.81
2023-08-14T11:50:46.807Z,33.90
2023-08-14T11:51:46.796Z,33.97
2023-08-14T11:52:46.792Z,33.95
2023-08-14T11:53:46.804Z,34.15
2023-08-14T11:54:46.821Z,34.21
2023-08-14T11:55:46.833Z,34.36
2023-08-14T11:56:46.826Z,34.32
2023-08-14T11:57:46.826Z,34.46
2023-08-14T11:58:51.730Z,34.52
2023-08-14T11:59:46.848Z,34.63
2023-08-14T12:00:46.907Z,34.64
2023-08-14T12:01:46.857Z,34.75
2023-08-14T12:02:46.904Z,34.79
2023-08-14T12:03:46.973Z,34.89
2023-08-14T12:04:46.870Z,34.94
2023-08-14T12:05:46.921Z,34.97
2023-08-14T12:06:46.887Z,35.08
2023-08-14T12:07:46.972Z,35.13
2023-08-14T12:08:46.897Z,35.26
2023-08-14T12:09:46.919Z,35.31
2023-08-14T12:10:46.917Z,35.39
2023-08-14T12:11:46.932Z,35.58
2023-08-14T12:12:55.152Z,35.61
2023-08-14T12:13:46.947Z,35.68
2023-08-14T12:14:46.941Z,35.71
2023-08-14T12:15:47.016Z,35.82
2023-08-14T12:16:46.982Z,35.83
2023-08-14T12:17:47.055Z,36.05
2023-08-14T12:18:47.004Z,35.98
2023-08-14T12:19:46.991Z,36.08
2023-08-14T12:20:47.018Z,36.24
2023-08-14T12:21:47.025Z,36.25
2023-08-14T12:22:55.600Z,36.30
2023-08-14T12:23:47.023Z,36.37
2023-08-14T12:24:47.046Z,36.41
2023-08-14T12:25:47.035Z,36.53
2023-08-14T12:26:47.066Z,36.62
2023-08-14T12:27:47.067Z,36.63
2023-08-14T12:28:47.067Z,36.70
2023-08-14T12:29:47.092Z,36.71
2023-08-14T12:30:47.110Z,36.81
2023-08-14T12:31:47.131Z,36.92
2023-08-14T12:32:47.161Z,37.02
2023-08-14T12:33:53.491Z,37.11
2023-08-14T12:34:47.113Z,37.07
2023-08-14T12:35:47.230Z,37.24
2023-08-14T12:36:47.161Z,37.42
2023-08-14T12:37:47.197Z,37.44
2023-08-14T12:38:47.164Z,37.49
2023-08-14T12:39:47.173Z,37.69
2023-08-14T12:40:47.164Z,37.71
2023-08-14T12:41:47.217Z,37.90
2023-08-14T12:42:47.196Z,38.03
2023-08-14T12:43:47.240Z,37.99
2023-08-14T12:44:47.223Z,38.10
2023-08-14T12:45:47.207Z,38.18
2023-08-14T12:46:47.277Z,38.30
2023-08-14T12:47:47.276Z,38.46
2023-08-14T12:48:47.250Z,38.56
2023-08-14T12:49:47.244Z,38.61
2023-08-14T12:50:47.258Z,38.58
2023-08-14T12:51:47.296Z,38.71
2023-08-14T12:52:47.309Z,38.83
2023-08-14T12:53:47.355Z,38.78
2023-08-14T12:54:47.304Z,38.89
2023-08-14T12:55:54.787Z,38.80
2023-08-14T12:56:47.333Z,38.66
2023-08-14T12:57:48.806Z,38.61
2023-08-14T12:58:49.252Z,38.55
2023-08-14T12:59:50.726Z,38.44
2023-08-14T13:00:47.416Z,38.31
2023-08-14T13:01:48.003Z,38.28
2023-08-14T13:02:47.395Z,38.33
2023-08-14T13:03:47.433Z,38.30
2023-08-14T13:04:47.406Z,38.36
2023-08-14T13:05:47.417Z,38.43
2023-08-14T13:06:47.423Z,38.39
2023-08-14T13:07:47.419Z,38.50
2023-08-14T13:08:47.422Z,38.55
2023-08-14T13:09:47.450Z,38.73
2023-08-14T13:10:47.439Z,38.89
2023-08-14T13:11:47.549Z,38.92
2023-08-14T13:12:47.442Z,39.04
2023-08-14T13:13:47.457Z,39.23
2023-08-14T13:14:47.475Z,39.30
2023-08-14T13:15:47.487Z,39.41
2023-08-14T13:16:47.591Z,39.47
2023-08-14T13:17:49.278Z,39.47
2023-08-14T13:18:47.528Z,39.53
2023-08-14T13:19:47.532Z,39.50
2023-08-14T13:20:47.544Z,39.56
2023-08-14T13:21:47.544Z,39.67
2023-08-14T13:22:47.567Z,39.78
2023-08-14T13:23:51.128Z,39.88
2023-08-14T13:24:47.554Z,39.90
2023-08-14T13:25:47.632Z,39.93
2023-08-14T13:26:47.604Z,39.90
2023-08-14T13:27:47.668Z,39.91
2023-08-14T13:28:47.619Z,39.96
2023-08-14T13:29:47.642Z,39.94
2023-08-14T13:30:47.678Z,39.99
2023-08-14T13:31:47.667Z,40.22
2023-08-14T13:32:47.674Z,40.28
2023-08-14T13:33:47.664Z,40.31
2023-08-14T13:36:02.306Z,40.56
2023-08-14T13:37:02.281Z,40.62
2023-08-14T13:37:50.949Z,40.63
2023-08-14T13:38:50.940Z,40.72
2023-08-14T13:39:50.930Z,40.72
2023-08-14T13:40:50.977Z,40.78
2023-08-14T13:41:50.964Z,40.84
2023-08-14T13:42:50.988Z,40.79
2023-08-14T13:43:50.985Z,40.94
2023-08-14T13:44:51.474Z,40.94
2023-08-14T13:45:51.035Z,40.97
2023-08-14T13:46:51.072Z,40.96
2023-08-14T13:47:56.046Z,41.00
2023-08-14T13:48:51.038Z,41.06
2023-08-14T13:49:51.066Z,41.01
2023-08-14T13:50:51.115Z,41.08
2023-08-14T13:51:51.083Z,41.08
2023-08-14T13:52:51.080Z,41.08
2023-08-14T13:53:51.103Z,41.11
2023-08-14T13:54:51.431Z,41.12
2023-08-14T13:55:52.629Z,41.20
2023-08-14T13:56:55.171Z,41.28
2023-08-14T13:57:51.134Z,41.37
2023-08-14T13:58:51.156Z,41.28
2023-08-14T13:59:51.175Z,41.34
2023-08-14T14:00:51.195Z,41.32
2023-08-14T14:01:51.209Z,41.37
2023-08-14T14:02:51.210Z,41.41
2023-08-14T14:03:51.227Z,41.38
2023-08-14T14:04:53.383Z,41.49
2023-08-14T14:05:51.304Z,41.45
2023-08-14T14:06:51.249Z,41.44
2023-08-14T14:07:54.349Z,41.42
2023-08-14T14:08:51.282Z,41.38
2023-08-14T14:09:51.276Z,41.31
2023-08-14T14:10:51.307Z,41.35
2023-08-14T14:11:51.301Z,41.28
2023-08-14T14:13:51.393Z,41.15
2023-08-14T14:14:51.323Z,41.19
2023-08-14T14:15:51.390Z,41.20
2023-08-14T14:16:51.343Z,41.20
2023-08-14T14:17:51.590Z,41.18
2023-08-14T14:18:51.427Z,41.07
2023-08-14T14:19:51.390Z,41.11
2023-08-14T14:20:51.391Z,41.12
2023-08-14T14:21:51.414Z,41.08
2023-08-14T14:22:51.443Z,41.08
2023-08-14T14:23:51.438Z,41.11
2023-08-14T14:24:51.456Z,41.22
2023-08-14T14:25:51.445Z,41.23
2023-08-14T14:26:51.460Z,41.19
2023-08-14T14:27:51.476Z,40.91
2023-08-14T14:28:51.542Z,40.79
2023-08-14T14:29:51.489Z,40.51
2023-08-14T14:30:51.526Z,40.30
2023-08-14T14:31:51.635Z,40.25
2023-08-14T14:32:51.648Z,40.02
2023-08-14T14:33:51.687Z,39.94
2023-08-14T14:34:51.540Z,39.64
2023-08-14T14:35:51.552Z,39.49
2023-08-14T14:37:51.571Z,39.30
2023-08-14T14:38:51.596Z,39.03
2023-08-14T14:39:51.613Z,38.84
2023-08-14T14:40:51.597Z,38.71
2023-08-14T14:41:51.611Z,38.55
2023-08-14T14:42:51.682Z,38.40
2023-08-14T14:43:51.631Z,38.22
2023-08-14T14:44:51.666Z,37.98
2023-08-14T14:45:51.660Z,37.90
2023-08-14T14:46:51.660Z,37.80
2023-08-14T14:47:51.746Z,37.66
2023-08-14T14:48:51.673Z,37.46
2023-08-14T14:49:51.711Z,37.51
2023-08-14T14:50:51.686Z,37.76
2023-08-14T14:51:51.691Z,37.84
2023-08-14T14:52:51.723Z,37.79
2023-08-14T14:53:51.721Z,37.81
2023-08-14T14:54:51.719Z,37.79
2023-08-14T14:55:51.729Z,37.79
2023-08-14T14:56:51.732Z,37.76
2023-08-14T14:57:51.761Z,37.57
2023-08-14T14:58:51.764Z,37.49
2023-08-14T14:59:51.751Z,37.48
2023-08-14T15:00:51.832Z,37.45
2023-08-14T15:01:51.766Z,37.36
2023-08-14T15:02:51.846Z,37.41
2023-08-14T15:03:51.903Z,37.62
2023-08-14T15:04:51.787Z,37.75
2023-08-14T15:05:51.806Z,37.90
2023-08-14T15:06:51.815Z,38.00
2023-08-14T15:07:51.823Z,38.10
2023-08-14T15:08:51.842Z,38.15
2023-08-14T15:09:51.852Z,38.20
2023-08-14T15:10:51.872Z,38.20
2023-08-14T15:11:51.855Z,38.30
2023-08-14T15:12:51.853Z,38.40
2023-08-14T15:13:51.895Z,38.47
2023-08-14T15:14:51.867Z,38.49
2023-08-14T15:15:51.886Z,38.52
2023-08-14T15:16:51.913Z,38.36
2023-08-14T15:17:51.961Z,38.28
2023-08-14T15:18:51.936Z,38.21
2023-08-14T15:19:51.931Z,38.12
2023-08-14T15:20:51.906Z,38.24
2023-08-14T15:21:51.916Z,38.15
2023-08-14T15:22:51.921Z,38.20
2023-08-14T15:23:51.954Z,38.28
2023-08-14T15:24:51.984Z,38.13
2023-08-14T15:25:51.973Z,38.13
2023-08-14T15:26:52.368Z,37.96
2023-08-14T15:27:51.985Z,37.79
2023-08-14T15:28:51.992Z,37.71
2023-08-14T15:29:52.015Z,37.64
2023-08-14T15:30:52.012Z,37.49
2023-08-14T15:31:52.028Z,37.37
2023-08-14T15:32:52.099Z,37.24
2023-08-14T15:33:52.626Z,37.14
2023-08-14T15:34:52.058Z,37.12
2023-08-14T15:35:52.071Z,37.05
2023-08-14T15:36:52.061Z,36.86
2023-08-14T15:37:52.079Z,36.73
2023-08-14T15:38:52.100Z,36.67
2023-08-14T15:39:52.126Z,36.51
2023-08-14T15:40:52.108Z,36.34
2023-08-14T15:41:52.090Z,36.30
2023-08-14T15:42:52.097Z,36.19
2023-08-14T15:43:52.140Z,36.18
2023-08-14T15:44:52.124Z,36.04
2023-08-14T15:45:52.161Z,35.94
2023-08-14T15:46:52.151Z,35.90
2023-08-14T15:47:52.156Z,35.86
2023-08-14T15:48:52.146Z,35.86
2023-08-14T15:49:52.141Z,35.72
2023-08-14T15:50:52.168Z,35.61
2023-08-14T15:51:52.162Z,35.55
2023-08-14T15:52:52.168Z,35.45
2023-08-14T15:53:52.174Z,35.31
2023-08-14T15:54:53.932Z,35.27
2023-08-14T15:55:52.198Z,35.18
2023-08-14T15:56:54.117Z,35.04
2023-08-14T15:57:52.192Z,35.09
2023-08-14T15:58:52.208Z,34.93
2023-08-14T15:59:52.228Z,34.89
2023-08-14T16:00:52.288Z,34.86
2023-08-14T16:01:52.240Z,34.75
2023-08-14T16:02:52.267Z,34.69
2023-08-14T16:03:52.284Z,34.63
2023-08-14T16:04:52.272Z,34.55
2023-08-14T16:05:52.260Z,34.45
2023-08-14T16:06:52.244Z,34.39
2023-08-14T16:07:52.245Z,34.34
2023-08-14T16:08:52.276Z,34.24
2023-08-14T16:09:52.249Z,34.14
2023-08-14T16:13:49.679Z,33.84
2023-08-14T16:14:49.692Z,33.84
2023-08-14T16:15:49.675Z,33.81
2023-08-14T16:16:49.751Z,33.71
2023-08-14T16:29:09.840Z,33.02
2023-08-14T16:30:09.820Z,33.01
2023-08-14T16:31:09.828Z,32.90
2023-08-14T16:32:09.780Z,32.83
2023-08-14T16:33:09.842Z,32.72
2023-08-14T16:34:10.003Z,32.76
2023-08-14T16:35:09.795Z,32.69
2023-08-14T16:36:09.811Z,32.64
2023-08-14T16:37:09.811Z,32.68
2023-08-14T16:38:09.797Z,32.64
2023-08-14T16:39:11.580Z,32.53
2023-08-14T16:40:09.836Z,32.42
2023-08-14T16:41:09.808Z,32.47
2023-08-14T16:42:09.838Z,32.27
2023-08-14T16:43:09.811Z,32.30
2023-08-14T16:44:09.818Z,32.34
2023-08-14T16:45:10.610Z,32.17
2023-08-14T16:46:09.833Z,32.30
2023-08-14T16:47:09.828Z,32.28
2023-08-14T16:48:09.830Z,32.15
2023-08-14T16:49:09.843Z,32.12
2023-08-14T16:50:09.879Z,32.19
2023-08-14T16:51:09.851Z,32.16
2023-08-14T16:52:09.850Z,32.16
2023-08-14T16:53:09.846Z,32.03
2023-08-14T16:54:09.861Z,32.05
2023-08-14T16:55:09.868Z,32.01
2023-08-14T16:56:09.857Z,31.98
2023-08-14T16:57:09.852Z,32.05
2023-08-14T16:58:09.864Z,32.06
2023-08-14T16:59:09.871Z,31.95
2023-08-14T17:00:09.881Z,31.88
2023-08-14T17:01:09.959Z,31.81
2023-08-14T17:02:09.918Z,31.78
2023-08-14T17:03:09.981Z,31.68
2023-08-14T17:04:09.931Z,31.71
2023-08-14T17:05:09.881Z,31.68
2023-08-14T17:06:09.906Z,31.71
2023-08-14T17:07:09.894Z,31.56
2023-08-14T17:08:10.412Z,31.58
2023-08-14T17:09:09.917Z,31.56
2023-08-14T17:10:09.890Z,31.58
2023-08-14T17:11:09.929Z,31.49
2023-08-14T17:12:09.901Z,31.41
2023-08-14T17:13:09.899Z,31.45
2023-08-14T17:14:09.945Z,31.34
2023-08-14T17:15:09.931Z,31.38
2023-08-14T17:16:09.940Z,31.31
2023-08-14T17:17:09.949Z,31.28
2023-08-14T17:18:09.983Z,31.21
2023-08-14T17:19:09.935Z,31.19
2023-08-14T17:20:09.920Z,31.13
2023-08-14T17:21:09.932Z,31.13
2023-08-14T17:22:09.934Z,31.15
2023-08-14T17:23:09.981Z,31.08
2023-08-14T17:24:09.981Z,31.01
2023-08-14T17:25:09.955Z,31.06
2023-08-14T17:26:09.956Z,31.03
2023-08-14T17:27:09.954Z,30.99
2023-08-14T17:28:10.008Z,30.85
2023-08-14T17:29:09.945Z,30.89
2023-08-14T17:30:09.956Z,30.77
2023-08-14T17:31:09.958Z,30.81
2023-08-14T17:33:10.010Z,30.81
2023-08-14T17:34:09.970Z,30.82
2023-08-14T17:35:09.955Z,30.70
2023-08-14T17:36:09.964Z,30.66
2023-08-14T17:37:09.959Z,30.77
2023-08-14T17:38:09.958Z,30.62
2023-08-14T17:39:10.018Z,30.57
2023-08-14T17:40:09.986Z,30.62
2023-08-14T17:41:09.980Z,30.56
2023-08-14T17:42:09.984Z,30.47
2023-08-14T17:43:09.983Z,30.48